sensor_id;sensor_type;location;lat;lon;timestamp;P1;durP1;ratioP1;P2;durP2;ratioP2
5225;SDS011;2632;51.666;7.146;2022-07-23T00:00:15;8.20;;;5.00;;
5225;SDS011;2632;51.666;7.146;2022-07-23T00:02:42;14.13;;;5.47;;
5225;SDS011;2632;51.666;7.146;2022-07-23T00:05:09;8.60;;;5.80;;
5225;SDS011;2632;51.666;7.146;2022-07-23T00:07:37;10.97;;;5.33;;
5225;SDS011;2632;51.666;7.146;2022-07-23T00:10:04;9.77;;;5.17;;
5225;SDS011;2632;51.666;7.146;2022-07-23T00:12:31;11.33;;;5.30;;
5225;SDS011;2632;51.666;7.146;2022-07-23T00:14:58;13.50;;;4.77;;
5225;SDS011;2632;51.666;7.146;2022-07-23T00:17:25;9.33;;;5.13;;
5225;SDS011;2632;51.666;7.146;2022-07-23T00:19:51;9.40;;;5.40;;
5225;SDS011;2632;51.666;7.146;2022-07-23T00:22:19;10.23;;;6.27;;
5225;SDS011;2632;51.666;7.146;2022-07-23T00:24:46;7.90;;;5.20;;
5225;SDS011;2632;51.666;7.146;2022-07-23T00:27:33;9.30;;;5.53;;
5225;SDS011;2632;51.666;7.146;2022-07-23T00:29:59;9.20;;;5.53;;
5225;SDS011;2632;51.666;7.146;2022-07-23T00:32:26;7.53;;;5.90;;
5225;SDS011;2632;51.666;7.146;2022-07-23T00:35:12;11.10;;;6.73;;
5225;SDS011;2632;51.666;7.146;2022-07-23T00:37:39;16.77;;;6.17;;
5225;SDS011;2632;51.666;7.146;2022-07-23T00:40:06;9.00;;;6.20;;
5225;SDS011;2632;51.666;7.146;2022-07-23T00:42:34;8.20;;;6.00;;
5225;SDS011;2632;51.666;7.146;2022-07-23T00:45:00;9.83;;;5.93;;
5225;SDS011;2632;51.666;7.146;2022-07-23T00:47:27;8.87;;;5.57;;
5225;SDS011;2632;51.666;7.146;2022-07-23T00:49:54;6.97;;;5.00;;
5225;SDS011;2632;51.666;7.146;2022-07-23T00:52:20;8.30;;;5.80;;
5225;SDS011;2632;51.666;7.146;2022-07-23T00:54:47;10.00;;;5.63;;
5225;SDS011;2632;51.666;7.146;2022-07-23T00:57:14;14.53;;;6.87;;
5225;SDS011;2632;51.666;7.146;2022-07-23T00:59:41;12.10;;;7.00;;
5225;SDS011;2632;51.666;7.146;2022-07-23T01:02:08;10.03;;;6.17;;
5225;SDS011;2632;51.666;7.146;2022-07-23T01:04:35;8.03;;;6.20;;
5225;SDS011;2632;51.666;7.146;2022-07-23T01:07:02;12.77;;;5.97;;
5225;SDS011;2632;51.666;7.146;2022-07-23T01:09:28;10.90;;;7.27;;
5225;SDS011;2632;51.666;7.146;2022-07-23T01:11:56;9.97;;;6.47;;
5225;SDS011;2632;51.666;7.146;2022-07-23T01:14:24;12.17;;;7.30;;
5225;SDS011;2632;51.666;7.146;2022-07-23T01:16:51;10.10;;;6.80;;
5225;SDS011;2632;51.666;7.146;2022-07-23T01:19:18;10.93;;;6.20;;
5225;SDS011;2632;51.666;7.146;2022-07-23T01:21:47;10.27;;;6.27;;
5225;SDS011;2632;51.666;7.146;2022-07-23T01:24:15;9.37;;;6.37;;
5225;SDS011;2632;51.666;7.146;2022-07-23T01:26:46;9.30;;;7.03;;
5225;SDS011;2632;51.666;7.146;2022-07-23T01:29:13;11.97;;;6.73;;
5225;SDS011;2632;51.666;7.146;2022-07-23T01:31:40;9.43;;;5.83;;
5225;SDS011;2632;51.666;7.146;2022-07-23T01:34:08;12.30;;;6.83;;
5225;SDS011;2632;51.666;7.146;2022-07-23T01:36:35;14.90;;;6.60;;
5225;SDS011;2632;51.666;7.146;2022-07-23T01:39:03;9.57;;;6.63;;
5225;SDS011;2632;51.666;7.146;2022-07-23T01:41:31;9.83;;;6.40;;
5225;SDS011;2632;51.666;7.146;2022-07-23T01:43:58;10.80;;;6.80;;
5225;SDS011;2632;51.666;7.146;2022-07-23T01:46:24;9.47;;;6.20;;
5225;SDS011;2632;51.666;7.146;2022-07-23T01:48:51;13.80;;;7.23;;
5225;SDS011;2632;51.666;7.146;2022-07-23T01:51:18;12.17;;;7.20;;
5225;SDS011;2632;51.666;7.146;2022-07-23T01:53:45;12.40;;;7.10;;
5225;SDS011;2632;51.666;7.146;2022-07-23T01:56:11;9.77;;;6.60;;
5225;SDS011;2632;51.666;7.146;2022-07-23T01:58:38;19.70;;;6.80;;
5225;SDS011;2632;51.666;7.146;2022-07-23T02:01:04;9.93;;;7.00;;
5225;SDS011;2632;51.666;7.146;2022-07-23T02:03:31;11.00;;;6.90;;
5225;SDS011;2632;51.666;7.146;2022-07-23T02:05:58;10.33;;;6.40;;
5225;SDS011;2632;51.666;7.146;2022-07-23T02:08:24;10.80;;;6.53;;
5225;SDS011;2632;51.666;7.146;2022-07-23T02:10:51;9.60;;;6.43;;
5225;SDS011;2632;51.666;7.146;2022-07-23T02:13:18;8.53;;;6.97;;
5225;SDS011;2632;51.666;7.146;2022-07-23T02:15:45;8.37;;;6.53;;
5225;SDS011;2632;51.666;7.146;2022-07-23T02:18:13;12.60;;;7.37;;
5225;SDS011;2632;51.666;7.146;2022-07-23T02:20:40;12.50;;;7.47;;
5225;SDS011;2632;51.666;7.146;2022-07-23T02:23:07;11.90;;;7.30;;
5225;SDS011;2632;51.666;7.146;2022-07-23T02:25:33;9.93;;;6.80;;
5225;SDS011;2632;51.666;7.146;2022-07-23T02:28:00;13.13;;;7.80;;
5225;SDS011;2632;51.666;7.146;2022-07-23T02:30:27;12.80;;;7.33;;
5225;SDS011;2632;51.666;7.146;2022-07-23T02:32:54;9.40;;;7.13;;
5225;SDS011;2632;51.666;7.146;2022-07-23T02:35:21;11.40;;;7.67;;
5225;SDS011;2632;51.666;7.146;2022-07-23T02:37:48;11.17;;;7.40;;
5225;SDS011;2632;51.666;7.146;2022-07-23T02:40:16;12.20;;;7.30;;
5225;SDS011;2632;51.666;7.146;2022-07-23T02:42:43;10.67;;;7.30;;
5225;SDS011;2632;51.666;7.146;2022-07-23T02:45:10;10.43;;;7.40;;
5225;SDS011;2632;51.666;7.146;2022-07-23T02:47:36;12.63;;;7.90;;
5225;SDS011;2632;51.666;7.146;2022-07-23T02:50:03;9.77;;;7.07;;
5225;SDS011;2632;51.666;7.146;2022-07-23T02:52:31;14.50;;;8.33;;
5225;SDS011;2632;51.666;7.146;2022-07-23T02:54:58;17.30;;;8.87;;
5225;SDS011;2632;51.666;7.146;2022-07-23T02:57:24;11.23;;;7.23;;
5225;SDS011;2632;51.666;7.146;2022-07-23T02:59:51;15.47;;;7.63;;
5225;SDS011;2632;51.666;7.146;2022-07-23T03:02:18;14.50;;;8.10;;
5225;SDS011;2632;51.666;7.146;2022-07-23T03:04:44;15.93;;;8.20;;
5225;SDS011;2632;51.666;7.146;2022-07-23T03:07:11;16.53;;;9.47;;
5225;SDS011;2632;51.666;7.146;2022-07-23T03:09:38;14.67;;;8.67;;
5225;SDS011;2632;51.666;7.146;2022-07-23T03:12:04;14.47;;;8.73;;
5225;SDS011;2632;51.666;7.146;2022-07-23T03:14:38;14.37;;;8.60;;
5225;SDS011;2632;51.666;7.146;2022-07-23T03:17:05;14.40;;;8.53;;
5225;SDS011;2632;51.666;7.146;2022-07-23T03:19:32;15.00;;;8.40;;
5225;SDS011;2632;51.666;7.146;2022-07-23T03:21:59;14.43;;;7.80;;
5225;SDS011;2632;51.666;7.146;2022-07-23T03:24:25;14.27;;;8.73;;
5225;SDS011;2632;51.666;7.146;2022-07-23T03:27:12;15.67;;;8.50;;
5225;SDS011;2632;51.666;7.146;2022-07-23T03:29:39;14.47;;;8.13;;
5225;SDS011;2632;51.666;7.146;2022-07-23T03:32:06;14.33;;;8.83;;
5225;SDS011;2632;51.666;7.146;2022-07-23T03:34:32;13.83;;;8.70;;
5225;SDS011;2632;51.666;7.146;2022-07-23T03:36:59;12.57;;;8.70;;
5225;SDS011;2632;51.666;7.146;2022-07-23T03:39:27;16.50;;;8.87;;
5225;SDS011;2632;51.666;7.146;2022-07-23T03:41:54;13.30;;;8.67;;
5225;SDS011;2632;51.666;7.146;2022-07-23T03:44:22;16.90;;;9.10;;
5225;SDS011;2632;51.666;7.146;2022-07-23T03:46:49;14.30;;;9.20;;
5225;SDS011;2632;51.666;7.146;2022-07-23T03:49:16;15.07;;;8.67;;
5225;SDS011;2632;51.666;7.146;2022-07-23T03:51:42;11.67;;;8.03;;
5225;SDS011;2632;51.666;7.146;2022-07-23T03:54:09;16.00;;;9.50;;
5225;SDS011;2632;51.666;7.146;2022-07-23T03:56:36;14.87;;;9.90;;
5225;SDS011;2632;51.666;7.146;2022-07-23T03:59:03;13.13;;;8.70;;
5225;SDS011;2632;51.666;7.146;2022-07-23T04:01:30;14.37;;;9.63;;
5225;SDS011;2632;51.666;7.146;2022-07-23T04:03:57;14.50;;;9.23;;
5225;SDS011;2632;51.666;7.146;2022-07-23T04:06:23;14.37;;;8.40;;
5225;SDS011;2632;51.666;7.146;2022-07-23T04:08:50;14.23;;;9.23;;
5225;SDS011;2632;51.666;7.146;2022-07-23T04:11:17;13.73;;;9.80;;
5225;SDS011;2632;51.666;7.146;2022-07-23T04:13:43;12.80;;;8.53;;
5225;SDS011;2632;51.666;7.146;2022-07-23T04:16:10;18.43;;;10.97;;
5225;SDS011;2632;51.666;7.146;2022-07-23T04:18:37;16.20;;;9.60;;
5225;SDS011;2632;51.666;7.146;2022-07-23T04:21:04;16.47;;;10.37;;
5225;SDS011;2632;51.666;7.146;2022-07-23T04:23:31;17.50;;;9.73;;
5225;SDS011;2632;51.666;7.146;2022-07-23T04:25:57;16.73;;;9.27;;
5225;SDS011;2632;51.666;7.146;2022-07-23T04:28:24;14.33;;;9.20;;
5225;SDS011;2632;51.666;7.146;2022-07-23T04:30:51;13.57;;;8.80;;
5225;SDS011;2632;51.666;7.146;2022-07-23T04:33:17;14.87;;;9.60;;
5225;SDS011;2632;51.666;7.146;2022-07-23T04:35:45;12.37;;;9.30;;
5225;SDS011;2632;51.666;7.146;2022-07-23T04:38:14;17.03;;;9.30;;
5225;SDS011;2632;51.666;7.146;2022-07-23T04:40:40;13.50;;;9.00;;
5225;SDS011;2632;51.666;7.146;2022-07-23T04:43:07;12.77;;;8.80;;
5225;SDS011;2632;51.666;7.146;2022-07-23T04:45:34;13.60;;;9.50;;
5225;SDS011;2632;51.666;7.146;2022-07-23T04:48:00;16.73;;;8.80;;
5225;SDS011;2632;51.666;7.146;2022-07-23T04:50:27;14.60;;;9.40;;
5225;SDS011;2632;51.666;7.146;2022-07-23T04:52:54;13.53;;;9.50;;
5225;SDS011;2632;51.666;7.146;2022-07-23T04:55:20;13.80;;;9.40;;
5225;SDS011;2632;51.666;7.146;2022-07-23T04:57:47;15.37;;;9.73;;
5225;SDS011;2632;51.666;7.146;2022-07-23T05:00:14;17.60;;;10.20;;
5225;SDS011;2632;51.666;7.146;2022-07-23T05:02:41;19.37;;;11.37;;
5225;SDS011;2632;51.666;7.146;2022-07-23T05:05:07;16.60;;;10.77;;
5225;SDS011;2632;51.666;7.146;2022-07-23T05:07:34;14.23;;;9.40;;
5225;SDS011;2632;51.666;7.146;2022-07-23T05:10:01;18.27;;;9.90;;
5225;SDS011;2632;51.666;7.146;2022-07-23T05:12:27;15.00;;;10.20;;
5225;SDS011;2632;51.666;7.146;2022-07-23T05:14:54;16.20;;;10.40;;
5225;SDS011;2632;51.666;7.146;2022-07-23T05:17:21;15.37;;;9.93;;
5225;SDS011;2632;51.666;7.146;2022-07-23T05:19:47;18.27;;;10.90;;
5225;SDS011;2632;51.666;7.146;2022-07-23T05:22:14;18.57;;;11.00;;
5225;SDS011;2632;51.666;7.146;2022-07-23T05:24:40;13.93;;;8.77;;
5225;SDS011;2632;51.666;7.146;2022-07-23T05:27:09;14.23;;;9.43;;
5225;SDS011;2632;51.666;7.146;2022-07-23T05:29:35;14.80;;;9.80;;
5225;SDS011;2632;51.666;7.146;2022-07-23T05:32:02;14.50;;;9.50;;
5225;SDS011;2632;51.666;7.146;2022-07-23T05:34:29;13.13;;;9.17;;
5225;SDS011;2632;51.666;7.146;2022-07-23T05:36:55;16.13;;;10.17;;
5225;SDS011;2632;51.666;7.146;2022-07-23T05:39:22;18.67;;;11.30;;
5225;SDS011;2632;51.666;7.146;2022-07-23T05:41:49;16.93;;;11.27;;
5225;SDS011;2632;51.666;7.146;2022-07-23T05:44:15;17.57;;;11.50;;
5225;SDS011;2632;51.666;7.146;2022-07-23T05:46:42;18.83;;;12.23;;
5225;SDS011;2632;51.666;7.146;2022-07-23T05:49:09;17.63;;;12.00;;
5225;SDS011;2632;51.666;7.146;2022-07-23T05:51:36;17.37;;;10.47;;
5225;SDS011;2632;51.666;7.146;2022-07-23T05:54:02;21.07;;;12.03;;
5225;SDS011;2632;51.666;7.146;2022-07-23T05:56:29;22.43;;;11.87;;
5225;SDS011;2632;51.666;7.146;2022-07-23T05:58:56;20.50;;;11.70;;
5225;SDS011;2632;51.666;7.146;2022-07-23T06:01:22;16.83;;;10.03;;
5225;SDS011;2632;51.666;7.146;2022-07-23T06:03:49;17.33;;;11.27;;
5225;SDS011;2632;51.666;7.146;2022-07-23T06:06:16;18.20;;;10.83;;
5225;SDS011;2632;51.666;7.146;2022-07-23T06:08:42;23.60;;;10.77;;
5225;SDS011;2632;51.666;7.146;2022-07-23T06:11:09;18.40;;;11.03;;
5225;SDS011;2632;51.666;7.146;2022-07-23T06:13:36;19.30;;;11.13;;
5225;SDS011;2632;51.666;7.146;2022-07-23T06:16:02;18.53;;;10.90;;
5225;SDS011;2632;51.666;7.146;2022-07-23T06:18:29;14.30;;;9.87;;
5225;SDS011;2632;51.666;7.146;2022-07-23T06:20:56;16.13;;;9.60;;
5225;SDS011;2632;51.666;7.146;2022-07-23T06:23:26;16.00;;;10.03;;
5225;SDS011;2632;51.666;7.146;2022-07-23T06:25:52;15.77;;;9.87;;
5225;SDS011;2632;51.666;7.146;2022-07-23T06:28:19;16.43;;;9.73;;
5225;SDS011;2632;51.666;7.146;2022-07-23T06:30:45;15.83;;;9.73;;
5225;SDS011;2632;51.666;7.146;2022-07-23T06:33:12;15.80;;;10.30;;
5225;SDS011;2632;51.666;7.146;2022-07-23T06:35:39;23.33;;;9.20;;
5225;SDS011;2632;51.666;7.146;2022-07-23T06:38:06;20.60;;;9.60;;
5225;SDS011;2632;51.666;7.146;2022-07-23T06:40:33;12.83;;;9.50;;
5225;SDS011;2632;51.666;7.146;2022-07-23T06:43:00;16.17;;;9.87;;
5225;SDS011;2632;51.666;7.146;2022-07-23T06:45:27;15.03;;;9.37;;
5225;SDS011;2632;51.666;7.146;2022-07-23T06:47:53;14.20;;;8.67;;
5225;SDS011;2632;51.666;7.146;2022-07-23T06:50:20;13.87;;;9.37;;
5225;SDS011;2632;51.666;7.146;2022-07-23T06:52:47;21.67;;;8.70;;
5225;SDS011;2632;51.666;7.146;2022-07-23T06:55:13;13.50;;;7.70;;
5225;SDS011;2632;51.666;7.146;2022-07-23T06:57:41;12.70;;;8.30;;
5225;SDS011;2632;51.666;7.146;2022-07-23T07:00:07;13.60;;;8.80;;
5225;SDS011;2632;51.666;7.146;2022-07-23T07:02:35;12.80;;;8.17;;
5225;SDS011;2632;51.666;7.146;2022-07-23T07:05:02;6.43;;;5.17;;
5225;SDS011;2632;51.666;7.146;2022-07-23T07:07:31;13.70;;;8.67;;
5225;SDS011;2632;51.666;7.146;2022-07-23T07:09:58;8.40;;;6.13;;
5225;SDS011;2632;51.666;7.146;2022-07-23T07:12:24;8.13;;;6.23;;
5225;SDS011;2632;51.666;7.146;2022-07-23T07:14:51;13.37;;;8.80;;
5225;SDS011;2632;51.666;7.146;2022-07-23T07:17:19;14.67;;;6.90;;
5225;SDS011;2632;51.666;7.146;2022-07-23T07:19:46;12.33;;;7.90;;
5225;SDS011;2632;51.666;7.146;2022-07-23T07:22:12;11.87;;;8.00;;
5225;SDS011;2632;51.666;7.146;2022-07-23T07:24:39;14.17;;;7.63;;
5225;SDS011;2632;51.666;7.146;2022-07-23T07:27:06;10.30;;;6.43;;
5225;SDS011;2632;51.666;7.146;2022-07-23T07:29:32;12.90;;;8.37;;
5225;SDS011;2632;51.666;7.146;2022-07-23T07:31:59;11.70;;;8.30;;
5225;SDS011;2632;51.666;7.146;2022-07-23T07:34:26;15.10;;;8.30;;
5225;SDS011;2632;51.666;7.146;2022-07-23T07:36:52;14.93;;;7.87;;
5225;SDS011;2632;51.666;7.146;2022-07-23T07:39:19;9.50;;;6.10;;
5225;SDS011;2632;51.666;7.146;2022-07-23T07:41:48;6.33;;;5.30;;
5225;SDS011;2632;51.666;7.146;2022-07-23T07:44:15;7.60;;;5.30;;
5225;SDS011;2632;51.666;7.146;2022-07-23T07:46:42;9.40;;;6.77;;
5225;SDS011;2632;51.666;7.146;2022-07-23T07:49:09;10.80;;;7.37;;
5225;SDS011;2632;51.666;7.146;2022-07-23T07:51:41;9.07;;;5.40;;
5225;SDS011;2632;51.666;7.146;2022-07-23T07:54:10;8.00;;;5.87;;
5225;SDS011;2632;51.666;7.146;2022-07-23T07:56:37;5.10;;;4.60;;
5225;SDS011;2632;51.666;7.146;2022-07-23T07:59:05;10.93;;;5.07;;
5225;SDS011;2632;51.666;7.146;2022-07-23T08:01:32;10.97;;;5.87;;
5225;SDS011;2632;51.666;7.146;2022-07-23T08:03:59;8.17;;;4.37;;
5225;SDS011;2632;51.666;7.146;2022-07-23T08:06:27;12.53;;;5.27;;
5225;SDS011;2632;51.666;7.146;2022-07-23T08:08:54;5.20;;;3.47;;
5225;SDS011;2632;51.666;7.146;2022-07-23T08:11:20;5.00;;;4.00;;
5225;SDS011;2632;51.666;7.146;2022-07-23T08:13:50;7.70;;;5.43;;
5225;SDS011;2632;51.666;7.146;2022-07-23T08:16:17;6.40;;;4.53;;
5225;SDS011;2632;51.666;7.146;2022-07-23T08:18:44;7.50;;;4.77;;
5225;SDS011;2632;51.666;7.146;2022-07-23T08:21:10;10.10;;;5.53;;
5225;SDS011;2632;51.666;7.146;2022-07-23T08:23:37;7.57;;;5.60;;
5225;SDS011;2632;51.666;7.146;2022-07-23T08:26:04;6.73;;;4.47;;
5225;SDS011;2632;51.666;7.146;2022-07-23T08:28:31;4.70;;;3.73;;
5225;SDS011;2632;51.666;7.146;2022-07-23T08:30:59;3.87;;;3.53;;
5225;SDS011;2632;51.666;7.146;2022-07-23T08:33:26;6.30;;;3.80;;
5225;SDS011;2632;51.666;7.146;2022-07-23T08:35:59;5.40;;;3.00;;
5225;SDS011;2632;51.666;7.146;2022-07-23T08:38:29;5.33;;;3.63;;
5225;SDS011;2632;51.666;7.146;2022-07-23T08:40:57;5.60;;;4.30;;
5225;SDS011;2632;51.666;7.146;2022-07-23T08:43:25;9.07;;;5.77;;
5225;SDS011;2632;51.666;7.146;2022-07-23T08:45:57;3.90;;;2.77;;
5225;SDS011;2632;51.666;7.146;2022-07-23T08:48:35;5.73;;;3.83;;
5225;SDS011;2632;51.666;7.146;2022-07-23T08:51:05;6.00;;;4.37;;
5225;SDS011;2632;51.666;7.146;2022-07-23T08:53:33;5.40;;;4.90;;
5225;SDS011;2632;51.666;7.146;2022-07-23T08:56:04;7.40;;;3.40;;
5225;SDS011;2632;51.666;7.146;2022-07-23T08:58:33;4.33;;;3.60;;
5225;SDS011;2632;51.666;7.146;2022-07-23T09:01:01;8.30;;;4.07;;
5225;SDS011;2632;51.666;7.146;2022-07-23T09:03:28;6.40;;;3.97;;
5225;SDS011;2632;51.666;7.146;2022-07-23T09:06:00;6.83;;;4.60;;
5225;SDS011;2632;51.666;7.146;2022-07-23T09:11:08;6.90;;;4.07;;
5225;SDS011;2632;51.666;7.146;2022-07-23T09:13:45;8.27;;;4.83;;
5225;SDS011;2632;51.666;7.146;2022-07-23T09:16:19;5.23;;;3.37;;
5225;SDS011;2632;51.666;7.146;2022-07-23T09:23:55;5.47;;;3.17;;
5225;SDS011;2632;51.666;7.146;2022-07-23T09:29:24;12.03;;;2.93;;
5225;SDS011;2632;51.666;7.146;2022-07-23T09:31:55;6.53;;;3.30;;
5225;SDS011;2632;51.666;7.146;2022-07-23T09:34:28;12.03;;;3.73;;
5225;SDS011;2632;51.666;7.146;2022-07-23T09:36:57;6.87;;;4.00;;
5225;SDS011;2632;51.666;7.146;2022-07-23T09:39:34;3.53;;;2.53;;
5225;SDS011;2632;51.666;7.146;2022-07-23T09:42:20;6.20;;;3.47;;
5225;SDS011;2632;51.666;7.146;2022-07-23T09:44:49;4.13;;;3.20;;
5225;SDS011;2632;51.666;7.146;2022-07-23T09:47:17;5.20;;;3.57;;
5225;SDS011;2632;51.666;7.146;2022-07-23T09:49:58;4.73;;;4.00;;
5225;SDS011;2632;51.666;7.146;2022-07-23T09:52:37;3.50;;;2.50;;
5225;SDS011;2632;51.666;7.146;2022-07-23T09:55:10;2.50;;;2.30;;
5225;SDS011;2632;51.666;7.146;2022-07-23T09:57:37;4.73;;;2.93;;
5225;SDS011;2632;51.666;7.146;2022-07-23T10:00:06;4.27;;;3.00;;
5225;SDS011;2632;51.666;7.146;2022-07-23T10:02:36;5.30;;;3.23;;
5225;SDS011;2632;51.666;7.146;2022-07-23T10:05:05;5.70;;;3.20;;
5225;SDS011;2632;51.666;7.146;2022-07-23T10:07:33;7.23;;;3.93;;
5225;SDS011;2632;51.666;7.146;2022-07-23T10:10:03;6.03;;;2.50;;
5225;SDS011;2632;51.666;7.146;2022-07-23T10:12:31;2.83;;;2.10;;
5225;SDS011;2632;51.666;7.146;2022-07-23T10:15:16;2.57;;;2.37;;
5225;SDS011;2632;51.666;7.146;2022-07-23T10:17:43;2.23;;;2.03;;
5225;SDS011;2632;51.666;7.146;2022-07-23T10:20:10;3.37;;;2.37;;
5225;SDS011;2632;51.666;7.146;2022-07-23T10:22:37;3.00;;;2.20;;
5225;SDS011;2632;51.666;7.146;2022-07-23T10:30:52;3.60;;;2.10;;
5225;SDS011;2632;51.666;7.146;2022-07-23T10:33:51;3.40;;;2.17;;
5225;SDS011;2632;51.666;7.146;2022-07-23T10:36:42;6.13;;;2.40;;
5225;SDS011;2632;51.666;7.146;2022-07-23T10:39:23;3.93;;;1.77;;
5225;SDS011;2632;51.666;7.146;2022-07-23T10:42:07;1.70;;;1.60;;
5225;SDS011;2632;51.666;7.146;2022-07-23T10:44:42;1.77;;;1.67;;
5225;SDS011;2632;51.666;7.146;2022-07-23T10:47:10;4.97;;;2.23;;
5225;SDS011;2632;51.666;7.146;2022-07-23T10:49:54;3.27;;;2.40;;
5225;SDS011;2632;51.666;7.146;2022-07-23T10:57:59;2.50;;;1.97;;
5225;SDS011;2632;51.666;7.146;2022-07-23T11:00:27;2.03;;;1.80;;
5225;SDS011;2632;51.666;7.146;2022-07-23T11:02:56;3.03;;;2.07;;
5225;SDS011;2632;51.666;7.146;2022-07-23T11:05:47;3.80;;;2.07;;
5225;SDS011;2632;51.666;7.146;2022-07-23T11:08:14;2.30;;;2.00;;
5225;SDS011;2632;51.666;7.146;2022-07-23T11:10:47;4.07;;;2.50;;
5225;SDS011;2632;51.666;7.146;2022-07-23T11:26:57;3.60;;;2.20;;
5225;SDS011;2632;51.666;7.146;2022-07-23T11:32:01;4.30;;;1.80;;
5225;SDS011;2632;51.666;7.146;2022-07-23T11:34:44;2.43;;;1.80;;
5225;SDS011;2632;51.666;7.146;2022-07-23T11:40:03;3.70;;;1.67;;
5225;SDS011;2632;51.666;7.146;2022-07-23T11:42:36;4.20;;;2.40;;
5225;SDS011;2632;51.666;7.146;2022-07-23T11:45:05;2.73;;;2.30;;
5225;SDS011;2632;51.666;7.146;2022-07-23T11:47:34;2.57;;;2.10;;
5225;SDS011;2632;51.666;7.146;2022-07-23T11:50:03;5.73;;;2.20;;
5225;SDS011;2632;51.666;7.146;2022-07-23T11:52:32;4.13;;;2.17;;
5225;SDS011;2632;51.666;7.146;2022-07-23T11:55:01;1.77;;;1.63;;
5225;SDS011;2632;51.666;7.146;2022-07-23T11:57:38;4.47;;;2.10;;
5225;SDS011;2632;51.666;7.146;2022-07-23T12:00:08;1.73;;;1.63;;
5225;SDS011;2632;51.666;7.146;2022-07-23T12:02:48;3.30;;;2.30;;
5225;SDS011;2632;51.666;7.146;2022-07-23T12:05:21;2.20;;;1.70;;
5225;SDS011;2632;51.666;7.146;2022-07-23T12:07:52;2.07;;;1.93;;
5225;SDS011;2632;51.666;7.146;2022-07-23T12:10:28;3.43;;;2.33;;
5225;SDS011;2632;51.666;7.146;2022-07-23T12:13:00;3.83;;;2.80;;
5225;SDS011;2632;51.666;7.146;2022-07-23T12:15:48;5.07;;;2.47;;
5225;SDS011;2632;51.666;7.146;2022-07-23T12:18:19;2.10;;;1.80;;
5225;SDS011;2632;51.666;7.146;2022-07-23T12:20:48;3.30;;;2.47;;
5225;SDS011;2632;51.666;7.146;2022-07-23T12:23:17;3.00;;;1.90;;
5225;SDS011;2632;51.666;7.146;2022-07-23T12:25:47;3.13;;;2.03;;
5225;SDS011;2632;51.666;7.146;2022-07-23T12:28:51;1.90;;;1.80;;
5225;SDS011;2632;51.666;7.146;2022-07-23T12:31:09;2.57;;;2.07;;
5225;SDS011;2632;51.666;7.146;2022-07-23T12:33:38;5.63;;;2.70;;
5225;SDS011;2632;51.666;7.146;2022-07-23T12:36:07;3.43;;;2.30;;
5225;SDS011;2632;51.666;7.146;2022-07-23T12:38:42;2.10;;;1.90;;
5225;SDS011;2632;51.666;7.146;2022-07-23T12:41:12;3.23;;;1.90;;
5225;SDS011;2632;51.666;7.146;2022-07-23T12:43:40;3.10;;;1.90;;
5225;SDS011;2632;51.666;7.146;2022-07-23T12:46:12;2.73;;;2.00;;
5225;SDS011;2632;51.666;7.146;2022-07-23T12:51:20;4.13;;;1.93;;
5225;SDS011;2632;51.666;7.146;2022-07-23T12:53:59;4.10;;;1.57;;
5225;SDS011;2632;51.666;7.146;2022-07-23T12:56:36;2.23;;;1.90;;
5225;SDS011;2632;51.666;7.146;2022-07-23T12:59:05;3.17;;;1.80;;
5225;SDS011;2632;51.666;7.146;2022-07-23T13:01:41;2.20;;;1.90;;
5225;SDS011;2632;51.666;7.146;2022-07-23T13:04:20;3.13;;;2.20;;
5225;SDS011;2632;51.666;7.146;2022-07-23T13:06:55;2.17;;;1.97;;
5225;SDS011;2632;51.666;7.146;2022-07-23T13:09:31;2.90;;;2.03;;
5225;SDS011;2632;51.666;7.146;2022-07-23T13:12:06;1.97;;;1.80;;
5225;SDS011;2632;51.666;7.146;2022-07-23T13:14:36;4.50;;;1.70;;
5225;SDS011;2632;51.666;7.146;2022-07-23T13:17:04;3.00;;;2.10;;
5225;SDS011;2632;51.666;7.146;2022-07-23T13:19:32;2.00;;;1.90;;
5225;SDS011;2632;51.666;7.146;2022-07-23T13:22:00;1.77;;;1.67;;
5225;SDS011;2632;51.666;7.146;2022-07-23T13:24:34;2.10;;;1.90;;
5225;SDS011;2632;51.666;7.146;2022-07-23T13:27:04;3.43;;;1.90;;
5225;SDS011;2632;51.666;7.146;2022-07-23T13:29:36;4.53;;;1.77;;
5225;SDS011;2632;51.666;7.146;2022-07-23T13:32:03;3.23;;;1.70;;
5225;SDS011;2632;51.666;7.146;2022-07-23T13:34:38;1.80;;;1.70;;
5225;SDS011;2632;51.666;7.146;2022-07-23T13:37:06;2.37;;;1.90;;
5225;SDS011;2632;51.666;7.146;2022-07-23T13:39:33;2.10;;;1.90;;
5225;SDS011;2632;51.666;7.146;2022-07-23T13:42:03;9.77;;;1.87;;
5225;SDS011;2632;51.666;7.146;2022-07-23T13:44:32;3.80;;;1.80;;
5225;SDS011;2632;51.666;7.146;2022-07-23T13:46:59;3.90;;;2.37;;
5225;SDS011;2632;51.666;7.146;2022-07-23T13:49:26;1.90;;;1.80;;
5225;SDS011;2632;51.666;7.146;2022-07-23T13:51:53;3.10;;;1.90;;
5225;SDS011;2632;51.666;7.146;2022-07-23T13:54:19;4.50;;;2.23;;
5225;SDS011;2632;51.666;7.146;2022-07-23T13:56:46;4.63;;;2.00;;
5225;SDS011;2632;51.666;7.146;2022-07-23T13:59:13;5.07;;;2.27;;
5225;SDS011;2632;51.666;7.146;2022-07-23T14:01:40;2.50;;;2.30;;
5225;SDS011;2632;51.666;7.146;2022-07-23T14:04:27;2.07;;;1.87;;
5225;SDS011;2632;51.666;7.146;2022-07-23T14:06:53;3.80;;;2.60;;
5225;SDS011;2632;51.666;7.146;2022-07-23T14:09:20;5.27;;;2.17;;
5225;SDS011;2632;51.666;7.146;2022-07-23T14:11:48;3.33;;;2.37;;
5225;SDS011;2632;51.666;7.146;2022-07-23T14:14:16;2.73;;;2.20;;
5225;SDS011;2632;51.666;7.146;2022-07-23T14:16:43;1.90;;;1.80;;
5225;SDS011;2632;51.666;7.146;2022-07-23T14:19:10;2.20;;;1.53;;
5225;SDS011;2632;51.666;7.146;2022-07-23T14:21:37;2.13;;;2.03;;
5225;SDS011;2632;51.666;7.146;2022-07-23T14:24:04;4.93;;;2.50;;
5225;SDS011;2632;51.666;7.146;2022-07-23T14:26:31;3.03;;;2.23;;
5225;SDS011;2632;51.666;7.146;2022-07-23T14:28:59;4.30;;;2.80;;
5225;SDS011;2632;51.666;7.146;2022-07-23T14:31:33;2.60;;;2.20;;
5225;SDS011;2632;51.666;7.146;2022-07-23T14:34:00;2.33;;;2.10;;
5225;SDS011;2632;51.666;7.146;2022-07-23T14:36:27;2.20;;;2.10;;
5225;SDS011;2632;51.666;7.146;2022-07-23T14:38:54;3.57;;;3.00;;
5225;SDS011;2632;51.666;7.146;2022-07-23T14:41:22;2.20;;;2.00;;
5225;SDS011;2632;51.666;7.146;2022-07-23T14:43:53;2.30;;;1.90;;
5225;SDS011;2632;51.666;7.146;2022-07-23T14:46:20;4.70;;;2.50;;
5225;SDS011;2632;51.666;7.146;2022-07-23T14:48:46;4.30;;;3.10;;
5225;SDS011;2632;51.666;7.146;2022-07-23T14:51:13;6.90;;;2.70;;
5225;SDS011;2632;51.666;7.146;2022-07-23T14:53:40;5.07;;;3.13;;
5225;SDS011;2632;51.666;7.146;2022-07-23T14:56:06;3.97;;;3.07;;
5225;SDS011;2632;51.666;7.146;2022-07-23T14:58:33;3.50;;;3.00;;
5225;SDS011;2632;51.666;7.146;2022-07-23T15:01:03;3.90;;;2.83;;
5225;SDS011;2632;51.666;7.146;2022-07-23T15:03:29;4.23;;;3.27;;
5225;SDS011;2632;51.666;7.146;2022-07-23T15:06:08;3.63;;;2.97;;
5225;SDS011;2632;51.666;7.146;2022-07-23T15:08:36;3.93;;;2.93;;
5225;SDS011;2632;51.666;7.146;2022-07-23T15:11:03;6.60;;;3.00;;
5225;SDS011;2632;51.666;7.146;2022-07-23T15:13:33;4.00;;;2.80;;
5225;SDS011;2632;51.666;7.146;2022-07-23T15:16:00;2.47;;;2.27;;
5225;SDS011;2632;51.666;7.146;2022-07-23T15:18:28;3.10;;;2.80;;
5225;SDS011;2632;51.666;7.146;2022-07-23T15:20:55;4.03;;;2.93;;
5225;SDS011;2632;51.666;7.146;2022-07-23T15:23:22;3.00;;;2.43;;
5225;SDS011;2632;51.666;7.146;2022-07-23T15:25:51;5.13;;;2.90;;
5225;SDS011;2632;51.666;7.146;2022-07-23T15:28:17;2.57;;;2.37;;
5225;SDS011;2632;51.666;7.146;2022-07-23T15:30:47;3.90;;;3.00;;
5225;SDS011;2632;51.666;7.146;2022-07-23T15:33:20;5.50;;;2.47;;
5225;SDS011;2632;51.666;7.146;2022-07-23T15:35:47;4.73;;;3.27;;
5225;SDS011;2632;51.666;7.146;2022-07-23T15:38:15;7.30;;;2.93;;
5225;SDS011;2632;51.666;7.146;2022-07-23T15:40:52;5.00;;;2.80;;
5225;SDS011;2632;51.666;7.146;2022-07-23T15:43:21;5.10;;;3.47;;
5225;SDS011;2632;51.666;7.146;2022-07-23T15:45:49;5.10;;;3.30;;
5225;SDS011;2632;51.666;7.146;2022-07-23T15:48:17;3.37;;;2.70;;
5225;SDS011;2632;51.666;7.146;2022-07-23T15:50:44;5.40;;;2.90;;
5225;SDS011;2632;51.666;7.146;2022-07-23T15:53:12;3.73;;;3.03;;
5225;SDS011;2632;51.666;7.146;2022-07-23T15:55:41;4.77;;;2.67;;
5225;SDS011;2632;51.666;7.146;2022-07-23T15:58:12;3.30;;;3.00;;
5225;SDS011;2632;51.666;7.146;2022-07-23T16:00:40;2.77;;;2.57;;